Carnival Conquest — 3FPQ9 — position and weather

sailwx.info

Track history (hours):
 
Tides and Currents Weather Stations Pressure Air Temp Water Temp Dewpoint Dewpoint Depression Visibility Wind Speed Wind Dir Waves Ship Positions

Carnival Conquest

Operator: Carnival Cruise Lines

Last reported at 2019-Mar-22 11:00 UTC. Time now 2019-Mar-22 12:29 UTC.
Position N 21°30' W 071°06'.

Type: Ship. MMSI: 357657000.

Wind from 140 at 16 knots

Barometer 1015.8 mb
Air temperature 25.0 ° C
Visibility: greater than 10.8 NM
Dewpoint 13.9 ° C
Water temperature 18.0 ° C

Date/timePositionNaut miles runAvg speedWind from/ knotsBaromVisibWave heightAir tempDewpointWater temp
2019-Mar-22 11:00N 21°30' W 071°06'7424.5 140 / 161015.810.8 25.013.918.0
2019-Mar-22 08:00N 21°00' W 069°54'26219.4 140 / 181015.3 25.017.526.0
2019-Mar-21 18:32N 18°28' W 066°08'010.8
2019-Mar-21 18:31N 18°28' W 066°08'1 2.0
2019-Mar-21 17:59N 18°28' W 066°07'0 0.0
2019-Mar-21 17:29N 18°28' W 066°07'0 0.0
2019-Mar-21 16:58N 18°28' W 066°07'0 0.0
2019-Mar-21 16:28N 18°28' W 066°07'0 0.0
2019-Mar-21 15:55N 18°28' W 066°07'0 0.0
2019-Mar-21 15:29N 18°28' W 066°07'0 0.0
2019-Mar-21 14:58N 18°28' W 066°07'0 0.0
2019-Mar-21 14:29N 18°28' W 066°07'0 0.0
2019-Mar-21 13:58N 18°28' W 066°07'0 0.0
2019-Mar-21 13:29N 18°28' W 066°07'0 0.0
2019-Mar-21 12:58N 18°28' W 066°07'0 0.0
2019-Mar-21 12:28N 18°28' W 066°07'0 0.0
2019-Mar-21 11:59N 18°28' W 066°07'0 0.0
2019-Mar-21 11:29N 18°28' W 066°07'0 0.0
2019-Mar-21 10:58N 18°28' W 066°07'0 0.0
2019-Mar-21 10:28N 18°28' W 066°07'1 1.7
2019-Mar-21 09:59N 18°28' W 066°07'63 8.2
2019-Mar-21 02:20N 18°43' W 065°03'3 8.8
2019-Mar-21 01:58N 18°44' W 065°00'4 8.7
2019-Mar-21 01:30N 18°44' W 064°56'4 8.8
2019-Mar-21 01:00N 18°45' W 064°51'4 8.9
2019-Mar-21 00:30N 18°42' W 064°48'4 8.9
2019-Mar-21 00:00N 18°39' W 064°44'510.5
2019-Mar-20 23:30N 18°35' W 064°40'611.5
2019-Mar-20 23:00N 18°33' W 064°34'611.2
2019-Mar-20 22:30N 18°30' W 064°29'511.0
2019-Mar-20 22:00N 18°25' W 064°31'510.2
2019-Mar-20 21:30N 18°25' W 064°36'0 0.0
2019-Mar-20 10:36N 18°25' W 064°36'1 7.7
2019-Mar-20 10:27N 18°25' W 064°35'3 7.3
2019-Mar-20 10:00N 18°22' W 064°33'52 6.3
2019-Mar-20 01:44N 18°14' W 063°38'312.1
2019-Mar-20 01:29N 18°11' W 063°38'712.6
2019-Mar-20 00:56N 18°04' W 063°38'612.1
2019-Mar-20 00:27N 18°00' W 063°33'812.5
2019-Mar-19 23:51N 17°59' W 063°25'513.2
2019-Mar-19 23:30N 17°60' W 063°20'713.2
2019-Mar-19 23:00N 18°01' W 063°13'713.3
2019-Mar-19 22:30N 18°01' W 063°06'4 5.0
2019-Mar-19 21:47N 18°01' W 063°03'0 0.0
2019-Mar-19 21:14N 18°01' W 063°03'0 0.0
2019-Mar-19 20:17N 18°01' W 063°03'0 0.0
2019-Mar-19 19:29N 18°01' W 063°03'0 0.0
2019-Mar-19 18:59N 18°01' W 063°03'0 0.0
2019-Mar-19 18:20N 18°01' W 063°03'0 0.0
2019-Mar-19 17:50N 18°01' W 063°03'0 0.0
2019-Mar-19 17:05N 18°01' W 063°03'0 0.0
2019-Mar-19 16:05N 18°01' W 063°03'0 0.0
2019-Mar-19 15:35N 18°01' W 063°03'0 0.0
2019-Mar-19 15:08N 18°01' W 063°03'0 0.0
2019-Mar-19 14:20N 18°01' W 063°03'0 0.0
2019-Mar-19 13:42N 18°01' W 063°03'0 0.0
2019-Mar-19 13:09N 18°01' W 063°03'0 0.0
2019-Mar-19 12:50N 18°01' W 063°03'5 3.6
2019-Mar-19 11:35N 18°00' W 063°07'912.5
2019-Mar-19 10:53N 18°02' W 063°16'612.7
2019-Mar-19 10:27N 18°04' W 063°22'815.6
2019-Mar-19 09:57N 18°07' W 063°30'68117.0
2019-Mar-17 18:00N 24°18' W 073°42'18116.4 200 / 141019.3 26.021.826.0
2019-Mar-17 07:00N 25°36' W 076°42'14318.3 100 / 71018.3 26.021.826.0
2019-Mar-16 23:10N 26°14' W 079°15'318.0
2019-Mar-16 23:00N 26°14' W 079°19'918.0
2019-Mar-16 22:30N 26°12' W 079°29'917.8
2019-Mar-16 22:00N 26°10' W 079°38'917.7
2019-Mar-16 21:30N 26°09' W 079°48'917.5
2019-Mar-16 21:01N 26°08' W 079°58'714.1
2019-Mar-16 20:30N 26°06' W 080°05'2 3.8
2019-Mar-16 20:00N 26°06' W 080°07'0 0.0
2019-Mar-16 19:29N 26°06' W 080°07'0 0.0
2019-Mar-16 18:56N 26°06' W 080°07'0 0.0
2019-Mar-16 15:35N 26°06' W 080°07'0 0.0
2019-Mar-16 15:29N 26°06' W 080°07'0 0.0
2019-Mar-16 14:59N 26°06' W 080°07'0 0.0
2019-Mar-16 14:29N 26°06' W 080°07'0 0.0
2019-Mar-16 13:59N 26°06' W 080°07'0 0.0
2019-Mar-16 13:29N 26°06' W 080°07'0 0.0
2019-Mar-16 12:59N 26°06' W 080°07'0 0.0
2019-Mar-16 12:26N 26°06' W 080°07'0 0.0
2019-Mar-16 11:59N 26°06' W 080°07'0 0.0
2019-Mar-16 11:29N 26°06' W 080°07'0 0.0
2019-Mar-16 10:59N 26°06' W 080°07'0 0.0
2019-Mar-16 10:29N 26°06' W 080°07'0 0.0
2019-Mar-16 10:01N 26°06' W 080°07'1 2.1
2019-Mar-16 09:31N 26°06' W 080°06'510.3
2019-Mar-16 09:01N 26°04' W 080°01'612.4
2019-Mar-16 08:30N 26°00' W 079°56'611.5
2019-Mar-16 08:00N 25°56' W 079°51'611.4
2019-Mar-16 07:31N 25°52' W 079°47'713.1
2019-Mar-16 07:00N 25°47' W 079°42'917.9
2019-Mar-16 06:30N 25°38' W 079°39'1019.4
2019-Mar-16 06:00N 25°29' W 079°38'42317.6
2019-Mar-15 06:00N 20°42' W 074°00'171 7.4 060 / 251018.3 26.020.227.0
2019-Mar-14 07:00N 20°12' W 071°00'   050 / 161018.3 24.018.027.0
Track history (hours):
 
Tides and Currents Weather Stations Pressure Air Temp Water Temp Dewpoint Dewpoint Depression Visibility Wind Speed Wind Dir Waves Ship Positions

Carnival Conquest

Operator: Carnival Cruise Lines

Last reported at 2019-Mar-22 11:00 UTC. Time now 2019-Mar-22 12:29 UTC.
Position N 21°30' W 071°06'.

Type: Ship. MMSI: 357657000.

Wind from 140 at 16 knots

Barometer 1015.8 mb
Air temperature 25.0 ° C
Visibility: greater than 10.8 NM
Dewpoint 13.9 ° C
Water temperature 18.0 ° C

Date/timePositionNaut miles runAvg speedWind from/ knotsBaromVisibWave heightAir tempDewpointWater temp
2019-Mar-22 11:00N 21°30' W 071°06'7424.5 140 / 161015.810.8 25.013.918.0
2019-Mar-22 08:00N 21°00' W 069°54'26219.4 140 / 181015.3 25.017.526.0
2019-Mar-21 18:32N 18°28' W 066°08'010.8
2019-Mar-21 18:31N 18°28' W 066°08'1 2.0
2019-Mar-21 17:59N 18°28' W 066°07'0 0.0
2019-Mar-21 17:29N 18°28' W 066°07'0 0.0
2019-Mar-21 16:58N 18°28' W 066°07'0 0.0
2019-Mar-21 16:28N 18°28' W 066°07'0 0.0
2019-Mar-21 15:55N 18°28' W 066°07'0 0.0
2019-Mar-21 15:29N 18°28' W 066°07'0 0.0
2019-Mar-21 14:58N 18°28' W 066°07'0 0.0
2019-Mar-21 14:29N 18°28' W 066°07'0 0.0
2019-Mar-21 13:58N 18°28' W 066°07'0 0.0
2019-Mar-21 13:29N 18°28' W 066°07'0 0.0
2019-Mar-21 12:58N 18°28' W 066°07'0 0.0
2019-Mar-21 12:28N 18°28' W 066°07'0 0.0
2019-Mar-21 11:59N 18°28' W 066°07'0 0.0
2019-Mar-21 11:29N 18°28' W 066°07'0 0.0
2019-Mar-21 10:58N 18°28' W 066°07'0 0.0
2019-Mar-21 10:28N 18°28' W 066°07'1 1.7
2019-Mar-21 09:59N 18°28' W 066°07'63 8.2
2019-Mar-21 02:20N 18°43' W 065°03'3 8.8
2019-Mar-21 01:58N 18°44' W 065°00'4 8.7
2019-Mar-21 01:30N 18°44' W 064°56'4 8.8
2019-Mar-21 01:00N 18°45' W 064°51'4 8.9
2019-Mar-21 00:30N 18°42' W 064°48'4 8.9
2019-Mar-21 00:00N 18°39' W 064°44'510.5
2019-Mar-20 23:30N 18°35' W 064°40'611.5
2019-Mar-20 23:00N 18°33' W 064°34'611.2
2019-Mar-20 22:30N 18°30' W 064°29'511.0
2019-Mar-20 22:00N 18°25' W 064°31'510.2
2019-Mar-20 21:30N 18°25' W 064°36'0 0.0
2019-Mar-20 10:36N 18°25' W 064°36'1 7.7
2019-Mar-20 10:27N 18°25' W 064°35'3 7.3
2019-Mar-20 10:00N 18°22' W 064°33'52 6.3
2019-Mar-20 01:44N 18°14' W 063°38'312.1
2019-Mar-20 01:29N 18°11' W 063°38'712.6
2019-Mar-20 00:56N 18°04' W 063°38'612.1
2019-Mar-20 00:27N 18°00' W 063°33'812.5
2019-Mar-19 23:51N 17°59' W 063°25'513.2
2019-Mar-19 23:30N 17°60' W 063°20'713.2
2019-Mar-19 23:00N 18°01' W 063°13'713.3
2019-Mar-19 22:30N 18°01' W 063°06'4 5.0
2019-Mar-19 21:47N 18°01' W 063°03'0 0.0
2019-Mar-19 21:14N 18°01' W 063°03'0 0.0
2019-Mar-19 20:17N 18°01' W 063°03'0 0.0
2019-Mar-19 19:29N 18°01' W 063°03'0 0.0
2019-Mar-19 18:59N 18°01' W 063°03'0 0.0
2019-Mar-19 18:20N 18°01' W 063°03'0 0.0
2019-Mar-19 17:50N 18°01' W 063°03'0 0.0
2019-Mar-19 17:05N 18°01' W 063°03'0 0.0
2019-Mar-19 16:05N 18°01' W 063°03'0 0.0
2019-Mar-19 15:35N 18°01' W 063°03'0 0.0
2019-Mar-19 15:08N 18°01' W 063°03'0 0.0
2019-Mar-19 14:20N 18°01' W 063°03'0 0.0
2019-Mar-19 13:42N 18°01' W 063°03'0 0.0
2019-Mar-19 13:09N 18°01' W 063°03'0 0.0
2019-Mar-19 12:50N 18°01' W 063°03'5 3.6
2019-Mar-19 11:35N 18°00' W 063°07'912.5
2019-Mar-19 10:53N 18°02' W 063°16'612.7
2019-Mar-19 10:27N 18°04' W 063°22'815.6
2019-Mar-19 09:57N 18°07' W 063°30'68117.0
2019-Mar-17 18:00N 24°18' W 073°42'18116.4 200 / 141019.3 26.021.826.0
2019-Mar-17 07:00N 25°36' W 076°42'14318.3 100 / 71018.3 26.021.826.0
2019-Mar-16 23:10N 26°14' W 079°15'318.0
2019-Mar-16 23:00N 26°14' W 079°19'918.0
2019-Mar-16 22:30N 26°12' W 079°29'917.8
2019-Mar-16 22:00N 26°10' W 079°38'917.7
2019-Mar-16 21:30N 26°09' W 079°48'917.5
2019-Mar-16 21:01N 26°08' W 079°58'714.1
2019-Mar-16 20:30N 26°06' W 080°05'2 3.8
2019-Mar-16 20:00N 26°06' W 080°07'0 0.0
2019-Mar-16 19:29N 26°06' W 080°07'0 0.0
2019-Mar-16 18:56N 26°06' W 080°07'0 0.0
2019-Mar-16 15:35N 26°06' W 080°07'0 0.0
2019-Mar-16 15:29N 26°06' W 080°07'0 0.0
2019-Mar-16 14:59N 26°06' W 080°07'0 0.0
2019-Mar-16 14:29N 26°06' W 080°07'0 0.0
2019-Mar-16 13:59N 26°06' W 080°07'0 0.0
2019-Mar-16 13:29N 26°06' W 080°07'0 0.0
2019-Mar-16 12:59N 26°06' W 080°07'0 0.0
2019-Mar-16 12:26N 26°06' W 080°07'0 0.0
2019-Mar-16 11:59N 26°06' W 080°07'0 0.0
2019-Mar-16 11:29N 26°06' W 080°07'0 0.0
2019-Mar-16 10:59N 26°06' W 080°07'0 0.0
2019-Mar-16 10:29N 26°06' W 080°07'0 0.0
2019-Mar-16 10:01N 26°06' W 080°07'1 2.1
2019-Mar-16 09:31N 26°06' W 080°06'510.3
2019-Mar-16 09:01N 26°04' W 080°01'612.4
2019-Mar-16 08:30N 26°00' W 079°56'611.5
2019-Mar-16 08:00N 25°56' W 079°51'611.4
2019-Mar-16 07:31N 25°52' W 079°47'713.1
2019-Mar-16 07:00N 25°47' W 079°42'917.9
2019-Mar-16 06:30N 25°38' W 079°39'1019.4
2019-Mar-16 06:00N 25°29' W 079°38'42317.6
2019-Mar-15 06:00N 20°42' W 074°00'171 7.4 060 / 251018.3 26.020.227.0
2019-Mar-14 07:00N 20°12' W 071°00'   050 / 161018.3 24.018.027.0

Dump ship's entire track history